createdAt,value
2024-02-21T00:00:08.796Z,8.90
2024-02-21T00:02:35.496Z,8.90
2024-02-21T00:05:02.226Z,8.90
2024-02-21T00:07:29.410Z,8.80
2024-02-21T00:09:56.213Z,8.80
2024-02-21T00:12:22.908Z,8.80
2024-02-21T00:14:49.595Z,8.80
2024-02-21T00:17:16.238Z,8.90
2024-02-21T00:19:42.952Z,8.90
2024-02-21T00:22:09.700Z,8.90
2024-02-21T00:24:36.335Z,8.90
2024-02-21T00:27:03.018Z,8.90
2024-02-21T00:29:30.218Z,8.90
2024-02-21T00:31:56.916Z,8.90
2024-02-21T00:34:23.656Z,8.90
2024-02-21T00:36:51.366Z,8.90
2024-02-21T00:39:17.978Z,8.90
2024-02-21T00:41:44.580Z,8.90
2024-02-21T00:44:11.479Z,8.90
2024-02-21T00:46:39.959Z,8.90
2024-02-21T00:49:06.967Z,8.90
2024-02-21T00:51:33.808Z,8.90
2024-02-21T00:54:00.520Z,8.90
2024-02-21T00:56:27.224Z,8.90
2024-02-21T00:58:53.875Z,8.80
2024-02-21T01:01:25.009Z,8.90
2024-02-21T01:03:54.321Z,8.80
2024-02-21T01:06:21.517Z,8.90
2024-02-21T01:08:49.037Z,8.90
2024-02-21T01:11:16.673Z,8.90
2024-02-21T01:13:43.885Z,8.90
2024-02-21T01:16:10.909Z,8.80
2024-02-21T01:18:41.124Z,8.80
2024-02-21T01:21:08.942Z,8.70
2024-02-21T01:23:36.249Z,8.70
2024-02-21T01:26:03.448Z,8.70
2024-02-21T01:28:30.371Z,8.70
2024-02-21T01:30:57.305Z,8.70
2024-02-21T01:33:23.904Z,8.70
2024-02-21T01:35:51.222Z,8.70
2024-02-21T01:38:17.934Z,8.60
2024-02-21T01:40:44.703Z,8.60
2024-02-21T01:43:19.838Z,8.60
2024-02-21T01:45:57.268Z,8.60
2024-02-21T01:48:25.083Z,8.60
2024-02-21T01:50:52.884Z,8.60
2024-02-21T01:53:22.385Z,8.60
2024-02-21T01:55:49.779Z,8.60
2024-02-21T01:58:17.386Z,8.60
2024-02-21T02:00:45.229Z,8.60
2024-02-21T02:03:19.113Z,8.60
2024-02-21T02:05:50.613Z,8.60
2024-02-21T02:08:20.899Z,8.60
2024-02-21T02:10:47.696Z,8.60
2024-02-21T02:13:14.611Z,8.50
2024-02-21T02:15:42.709Z,8.50
2024-02-21T02:18:09.928Z,8.50
2024-02-21T02:20:37.492Z,8.50
2024-02-21T02:23:13.379Z,8.50
2024-02-21T02:25:40.740Z,8.50
2024-02-21T02:28:08.166Z,8.50
2024-02-21T02:30:38.201Z,8.50
2024-02-21T02:33:05.646Z,8.40
2024-02-21T02:35:32.810Z,8.40
2024-02-21T02:37:59.785Z,8.30
2024-02-21T02:40:26.516Z,8.30
2024-02-21T02:42:55.909Z,8.30
2024-02-21T02:45:30.024Z,8.40
2024-02-21T02:47:58.153Z,8.40
2024-02-21T02:50:25.916Z,8.30
2024-02-21T02:52:53.573Z,8.30
2024-02-21T02:55:20.276Z,8.20
2024-02-21T02:57:47.372Z,8.30
2024-02-21T03:00:15.535Z,8.20
2024-02-21T03:02:47.068Z,8.20
2024-02-21T03:05:16.504Z,8.30
2024-02-21T03:07:44.641Z,8.20
2024-02-21T03:10:12.324Z,8.30
2024-02-21T03:12:39.598Z,8.20
2024-02-21T03:15:07.278Z,8.20
2024-02-21T03:17:37.193Z,8.20
2024-02-21T03:20:10.155Z,8.10
2024-02-21T03:22:40.592Z,8.10
2024-02-21T03:25:08.342Z,8.10
2024-02-21T03:27:35.398Z,8.10
2024-02-21T03:30:02.188Z,8.10
2024-02-21T03:32:29.844Z,8.10
2024-02-21T03:34:56.786Z,8.10
2024-02-21T03:37:23.683Z,8.10
2024-02-21T03:39:50.408Z,8.10
2024-02-21T03:42:17.041Z,8.10
2024-02-21T03:44:43.633Z,8.10
2024-02-21T03:47:12.590Z,8.10
2024-02-21T03:49:39.786Z,8.00
2024-02-21T03:52:06.773Z,8.00
2024-02-21T03:54:33.453Z,8.00
2024-02-21T03:57:00.146Z,7.90
2024-02-21T03:59:26.782Z,8.00
2024-02-21T04:01:54.365Z,8.00
2024-02-21T04:04:21.760Z,8.00
2024-02-21T04:06:49.703Z,7.90
2024-02-21T04:09:16.338Z,7.90
2024-02-21T04:11:43.177Z,7.90
2024-02-21T04:14:09.980Z,7.90
2024-02-21T04:16:36.660Z,7.80
2024-02-21T04:19:03.554Z,7.80
2024-02-21T04:21:30.446Z,7.80
2024-02-21T04:23:57.152Z,7.70
2024-02-21T04:26:23.744Z,7.60
2024-02-21T04:28:50.428Z,7.50
2024-02-21T09:38:43.761Z,9.90
2024-02-21T09:41:26.325Z,10.20
2024-02-21T09:43:55.692Z,10.10
2024-02-21T09:46:31.581Z,10.10
2024-02-21T09:49:19.254Z,10.20
2024-02-21T09:51:46.961Z,10.00
2024-02-21T09:54:16.850Z,10.30
2024-02-21T09:56:47.465Z,10.40
2024-02-21T09:59:17.651Z,10.40
2024-02-21T10:01:48.165Z,10.40
2024-02-21T10:04:15.226Z,10.50
2024-02-21T22:03:57.440Z,10.80
2024-02-21T22:06:24.116Z,10.80
2024-02-21T22:08:52.983Z,10.90
2024-02-21T22:11:20.105Z,10.90
2024-02-21T22:13:47.912Z,10.90
2024-02-21T22:16:14.696Z,11.00
2024-02-21T22:18:42.943Z,11.00
2024-02-21T22:21:09.844Z,11.10
2024-02-21T22:23:39.120Z,11.10
2024-02-21T22:26:07.550Z,11.20
2024-02-21T22:28:34.491Z,11.10
2024-02-21T22:31:01.195Z,11.20
2024-02-21T22:33:27.962Z,11.10
2024-02-21T22:35:54.716Z,11.10
2024-02-21T22:38:21.384Z,11.10
2024-02-21T22:40:48.239Z,11.00
2024-02-21T22:43:14.963Z,11.00
2024-02-21T22:45:41.699Z,11.00
2024-02-21T22:48:08.636Z,11.00
2024-02-21T22:50:35.309Z,11.00
2024-02-21T22:53:02.061Z,10.90
2024-02-21T22:55:29.649Z,10.90
2024-02-21T22:57:57.373Z,10.90
2024-02-21T23:00:24.836Z,10.80
2024-02-21T23:02:51.712Z,10.80
2024-02-21T23:05:22.395Z,10.70
2024-02-21T23:07:51.187Z,10.70
2024-02-21T23:10:18.812Z,10.60
2024-02-21T23:12:45.482Z,10.60
2024-02-21T23:15:12.104Z,10.50
2024-02-21T23:17:38.713Z,10.50
2024-02-21T23:20:08.138Z,10.40
2024-02-21T23:22:36.210Z,10.50
2024-02-21T23:25:03.429Z,10.40
2024-02-21T23:27:31.017Z,10.40
2024-02-21T23:29:57.620Z,10.40
2024-02-21T23:32:25.524Z,10.30
2024-02-21T23:34:52.211Z,10.30
2024-02-21T23:37:18.961Z,10.30
2024-02-21T23:39:45.846Z,10.20
2024-02-21T23:42:12.496Z,10.30
2024-02-21T23:44:39.149Z,10.20
2024-02-21T23:47:05.803Z,10.30
2024-02-21T23:49:32.623Z,10.20
2024-02-21T23:52:01.266Z,10.10
2024-02-21T23:54:27.949Z,10.10
2024-02-21T23:56:54.698Z,10.00
2024-02-21T23:59:21.363Z,9.90
